Time;durP1;ratioP1;P1;durP2;ratioP2;P2;SDS_P1;SDS_P2;PMS_P1;PMS_P2;Temp;Humidity;BMP_temperature;BMP_pressure;BME280_temperature;BME280_humidity;BME280_pressure;Samples;Min_cycle;Max_cycle;Signal;HPM_P1;HPM_P2
2021/10/22 00:01:00;;;;;;;13.00;2.78;;;8.00;93.00;;;;;;5027073;28;20116;-75
2021/10/22 00:03:26;;;;;;;13.75;2.20;;;8.00;93.00;;;;;;5028869;28;20402;-75
2021/10/22 00:05:51;;;;;;;13.05;2.92;;;8.10;93.10;;;;;;5028651;28;20381;-75
2021/10/22 00:08:17;;;;;;;16.98;2.72;;;8.00;93.10;;;;;;5011270;28;20026;-74
2021/10/22 00:10:44;;;;;;;13.32;2.78;;;8.00;93.20;;;;;;5010069;28;20025;-75
2021/10/22 00:13:11;;;;;;;16.35;2.67;;;8.10;93.20;;;;;;5028381;28;20081;-75
2021/10/22 00:15:36;;;;;;;13.68;2.42;;;8.00;93.10;;;;;;4994278;28;20156;-74
2021/10/22 00:18:02;;;;;;;13.35;2.50;;;8.00;93.10;;;;;;5010470;28;20170;-74
2021/10/22 00:20:28;;;;;;;13.50;2.55;;;8.00;93.10;;;;;;5010824;28;20037;-75
2021/10/22 00:22:54;;;;;;;12.25;2.38;;;8.00;93.00;;;;;;5027703;28;20116;-75
2021/10/22 00:25:19;;;;;;;20.48;2.58;;;8.00;93.10;;;;;;5028230;28;20154;-75
2021/10/22 00:27:46;;;;;;;14.43;2.78;;;7.90;93.10;;;;;;5028297;28;20047;-74
2021/10/22 00:30:11;;;;;;;11.10;2.25;;;7.90;93.10;;;;;;5028093;28;20811;-75
2021/10/22 00:32:38;;;;;;;15.05;2.45;;;7.90;93.10;;;;;;5010156;28;20140;-75
2021/10/22 00:35:04;;;;;;;13.77;2.75;;;7.80;93.10;;;;;;5010574;28;20033;-75
2021/10/22 00:37:30;;;;;;;15.05;2.35;;;7.80;93.20;;;;;;4994125;28;20037;-74
2021/10/22 00:39:56;;;;;;;14.63;2.33;;;7.80;93.20;;;;;;5010358;28;20033;-74
2021/10/22 00:42:23;;;;;;;10.38;2.63;;;7.80;93.20;;;;;;5026724;28;20048;-75
2021/10/22 00:44:51;;;;;;;12.77;2.42;;;7.70;93.10;;;;;;5042669;28;20115;-75
2021/10/22 00:47:17;;;;;;;15.18;2.40;;;7.70;93.20;;;;;;5026819;28;20040;-75
2021/10/22 00:49:43;;;;;;;13.75;2.13;;;7.70;93.20;;;;;;5026929;28;20037;-74
2021/10/22 00:52:09;;;;;;;16.88;2.60;;;7.60;93.20;;;;;;5010136;28;20033;-75
2021/10/22 00:54:35;;;;;;;18.13;2.88;;;7.60;93.20;;;;;;5027987;28;20110;-75
2021/10/22 00:57:02;;;;;;;14.48;2.40;;;7.60;93.30;;;;;;4994069;28;20544;-75
2021/10/22 00:59:27;;;;;;;18.42;3.25;;;7.60;93.30;;;;;;4993956;28;20145;-75
2021/10/22 01:01:53;;;;;;;16.95;3.15;;;7.60;93.30;;;;;;5027523;28;20030;-75
2021/10/22 01:04:19;;;;;;;19.02;3.20;;;7.50;93.30;;;;;;5027434;28;20033;-75
2021/10/22 01:06:45;;;;;;;17.52;3.22;;;7.50;93.30;;;;;;5010010;28;20126;-75
2021/10/22 01:09:12;;;;;;;12.02;2.55;;;7.50;93.30;;;;;;5027736;28;20513;-74
2021/10/22 01:11:39;;;;;;;15.18;3.95;;;7.50;93.30;;;;;;5009885;28;20036;-75
2021/10/22 01:14:07;;;;;;;18.38;3.17;;;7.50;93.30;;;;;;5117649;28;20015;-74
2021/10/22 01:16:36;;;;;;;18.90;3.35;;;7.40;93.30;;;;;;5010047;28;20040;-75
2021/10/22 01:19:02;;;;;;;26.17;3.35;;;7.40;93.30;;;;;;5042104;28;20458;-74
2021/10/22 01:21:28;;;;;;;19.15;3.85;;;7.40;93.30;;;;;;5026761;28;20036;-74
2021/10/22 01:23:54;;;;;;;18.17;3.17;;;7.40;93.30;;;;;;5028390;28;20097;-74
2021/10/22 01:26:20;;;;;;;15.05;3.10;;;7.40;93.30;;;;;;5011513;28;20026;-74
2021/10/22 01:28:47;;;;;;;13.77;3.05;;;7.40;93.40;;;;;;5011253;28;20120;-74
2021/10/22 01:31:14;;;;;;;16.42;3.15;;;7.40;93.40;;;;;;4994831;28;20030;-74
2021/10/22 01:33:41;;;;;;;15.68;3.00;;;7.30;93.30;;;;;;5030057;28;20026;-75
2021/10/22 01:36:07;;;;;;;12.95;3.10;;;7.30;93.30;;;;;;5012250;28;20036;-74
2021/10/22 01:38:33;;;;;;;16.23;3.42;;;7.30;93.30;;;;;;5030177;28;20030;-74
2021/10/22 01:40:59;;;;;;;13.95;3.05;;;7.20;93.30;;;;;;5029904;28;20037;-74
2021/10/22 01:43:26;;;;;;;17.23;3.20;;;7.30;93.30;;;;;;5011168;28;20106;-74
2021/10/22 01:45:52;;;;;;;17.60;3.08;;;7.20;93.30;;;;;;5012212;28;20029;-74
2021/10/22 01:48:18;;;;;;;19.58;3.20;;;7.20;93.30;;;;;;5029141;28;20020;-75
2021/10/22 01:50:45;;;;;;;21.00;3.90;;;7.20;93.30;;;;;;5028946;28;20034;-75
2021/10/22 01:53:14;;;;;;;17.90;4.22;;;7.20;93.20;;;;;;5029217;28;20501;-75
2021/10/22 01:55:40;;;;;;;;;;;7.20;93.20;;;;;;5011911;28;20040;-74
2021/10/22 01:58:05;;;;;;;12.05;3.20;;;7.10;93.20;;;;;;5044289;28;19917;-74
2021/10/22 02:00:31;;;;;;;20.60;4.03;;;7.10;93.20;;;;;;4995008;28;20481;-75
2021/10/22 02:02:57;;;;;;;18.08;3.60;;;7.10;93.20;;;;;;5010781;28;20049;-74
2021/10/22 02:05:22;;;;;;;15.57;3.42;;;7.10;93.20;;;;;;5008922;28;20057;-74
2021/10/22 02:07:48;;;;;;;10.90;3.15;;;7.10;93.20;;;;;;5012222;28;20030;-75
2021/10/22 02:10:14;;;;;;;11.20;2.92;;;7.10;93.20;;;;;;5012565;28;20035;-75
2021/10/22 02:12:39;;;;;;;12.40;3.15;;;7.10;93.20;;;;;;5030061;28;20433;-75
2021/10/22 02:15:06;;;;;;;12.05;2.78;;;7.10;93.20;;;;;;5012357;28;20033;-74
2021/10/22 02:17:32;;;;;;;20.30;3.53;;;7.10;93.10;;;;;;5012041;28;20545;-75
2021/10/22 02:19:58;;;;;;;16.35;3.67;;;7.10;93.10;;;;;;5030210;28;20144;-74
2021/10/22 02:22:24;;;;;;;14.85;3.67;;;7.00;93.00;;;;;;5029430;28;20048;-74
2021/10/22 02:24:49;;;;;;;20.52;3.88;;;7.00;93.00;;;;;;4996299;28;20038;-74
2021/10/22 02:27:15;;;;;;;20.02;3.38;;;7.00;93.00;;;;;;5011637;28;20074;-74
2021/10/22 02:29:41;;;;;;;20.50;3.72;;;7.00;92.90;;;;;;5030170;28;20040;-74
2021/10/22 02:32:06;;;;;;;18.33;3.08;;;7.00;92.90;;;;;;5032342;27;20436;-74
2021/10/22 02:34:32;;;;;;;17.08;3.30;;;7.00;92.90;;;;;;5034173;27;20864;-74
2021/10/22 02:36:58;;;;;;;13.77;3.30;;;7.00;92.90;;;;;;4994994;28;20033;-74
2021/10/22 02:39:24;;;;;;;21.27;3.35;;;7.00;92.90;;;;;;5011965;28;20075;-74
2021/10/22 02:41:50;;;;;;;15.15;2.90;;;6.90;92.90;;;;;;5029499;28;20035;-74
2021/10/22 02:44:15;;;;;;;20.58;3.13;;;6.90;92.80;;;;;;5012076;28;20124;-74
2021/10/22 02:46:41;;;;;;;18.00;3.15;;;6.90;92.90;;;;;;5011499;28;20038;-74
2021/10/22 02:49:07;;;;;;;14.88;3.40;;;6.90;92.90;;;;;;5012349;28;20033;-75
2021/10/22 02:51:33;;;;;;;16.13;2.53;;;6.80;92.90;;;;;;5029388;28;20026;-75
2021/10/22 02:53:59;;;;;;;13.95;3.15;;;6.90;92.90;;;;;;5012006;28;20033;-74
2021/10/22 02:56:24;;;;;;;18.77;2.97;;;6.80;92.80;;;;;;5011761;28;20045;-74
2021/10/22 02:58:50;;;;;;;17.10;3.22;;;6.80;92.80;;;;;;5028475;28;20029;-75
2021/10/22 03:01:16;;;;;;;17.17;3.33;;;6.80;92.80;;;;;;5027792;28;20033;-75
2021/10/22 03:03:41;;;;;;;15.48;2.70;;;6.80;92.70;;;;;;5029855;28;20037;-74
2021/10/22 03:06:07;;;;;;;20.35;3.20;;;6.70;92.70;;;;;;5029407;28;20037;-74
2021/10/22 03:08:33;;;;;;;14.68;3.20;;;6.80;93.00;;;;;;5026854;28;20048;-74
2021/10/22 03:10:58;;;;;;;16.83;2.88;;;6.70;92.80;;;;;;5039789;28;20033;-74
2021/10/22 03:13:24;;;;;;;20.65;3.08;;;6.70;92.70;;;;;;5011853;28;20040;-74
2021/10/22 03:15:50;;;;;;;13.52;2.58;;;6.70;92.70;;;;;;5029261;28;20052;-74
2021/10/22 03:18:16;;;;;;;11.93;2.70;;;6.70;92.80;;;;;;5011117;28;20038;-74
2021/10/22 03:20:41;;;;;;;15.63;3.08;;;6.70;92.80;;;;;;5011286;28;20094;-74
2021/10/22 03:23:07;;;;;;;13.27;3.08;;;6.70;92.80;;;;;;5028219;28;20519;-74
2021/10/22 03:25:33;;;;;;;13.60;2.22;;;6.70;92.70;;;;;;5011440;28;20410;-74
2021/10/22 03:28:04;;;;;;;9.55;3.05;;;6.70;92.80;;;;;;5011230;28;20090;-74
2021/10/22 03:30:33;;;;;;;20.70;3.10;;;6.70;92.80;;;;;;5028747;28;20025;-74
2021/10/22 03:32:58;;;;;;;;;;;6.70;92.80;;;;;;5029828;28;20034;-75
2021/10/22 03:35:24;;;;;;;20.35;3.70;;;6.70;92.80;;;;;;5028533;28;19905;-75
2021/10/22 03:37:50;;;;;;;17.10;3.22;;;6.70;92.80;;;;;;5029039;28;20057;-74
2021/10/22 03:40:16;;;;;;;15.10;2.55;;;6.70;92.80;;;;;;5010930;28;20049;-74
2021/10/22 03:42:42;;;;;;;13.63;2.60;;;6.60;92.80;;;;;;5011069;28;20057;-74
2021/10/22 03:45:08;;;;;;;13.48;2.75;;;6.70;92.80;;;;;;5028325;28;20110;-74
2021/10/22 03:47:34;;;;;;;11.57;2.65;;;6.70;92.70;;;;;;5010637;28;20030;-75
2021/10/22 03:49:59;;;;;;;13.63;2.60;;;6.70;92.70;;;;;;5010498;28;20817;-74
2021/10/22 03:52:25;;;;;;;10.00;2.50;;;6.70;93.00;;;;;;5027790;28;20030;-74
2021/10/22 03:54:51;;;;;;;14.40;2.53;;;6.60;92.70;;;;;;5027545;28;20037;-75
2021/10/22 03:57:16;;;;;;;17.15;2.50;;;6.60;92.70;;;;;;5010056;28;20390;-75
2021/10/22 03:59:42;;;;;;;12.93;2.47;;;6.60;92.70;;;;;;5028443;28;20041;-74
2021/10/22 04:02:08;;;;;;;11.55;2.35;;;6.60;92.70;;;;;;4994318;28;20042;-74
2021/10/22 04:04:34;;;;;;;14.57;3.20;;;6.60;92.70;;;;;;5027941;28;20053;-75
2021/10/22 04:07:01;;;;;;;12.65;2.13;;;6.60;92.70;;;;;;5028973;28;20030;-75
2021/10/22 04:09:31;;;;;;;12.73;2.63;;;6.60;92.70;;;;;;5028298;28;20026;-74
2021/10/22 04:11:56;;;;;;;16.52;2.40;;;6.60;92.70;;;;;;5027899;28;20038;-74
2021/10/22 04:14:22;;;;;;;18.52;3.08;;;6.50;92.80;;;;;;5028179;28;20017;-74
2021/10/22 04:16:48;;;;;;;11.88;2.47;;;6.60;92.70;;;;;;5010740;28;20048;-74
2021/10/22 04:19:14;;;;;;;15.15;2.72;;;6.50;92.70;;;;;;5034648;27;20041;-74
2021/10/22 04:21:40;;;;;;;13.68;2.97;;;6.50;92.70;;;;;;5010450;28;20052;-74
2021/10/22 04:24:05;;;;;;;19.85;2.63;;;6.50;92.70;;;;;;5010295;28;20099;-75
2021/10/22 04:26:31;;;;;;;14.68;2.35;;;6.50;92.60;;;;;;5009824;28;20106;-75
2021/10/22 04:28:56;;;;;;;16.40;2.47;;;6.50;92.60;;;;;;4992535;28;20049;-74
2021/10/22 04:31:22;;;;;;;20.40;3.03;;;6.60;92.60;;;;;;5026986;28;20041;-75
2021/10/22 04:33:48;;;;;;;15.35;2.70;;;6.50;92.60;;;;;;5008655;28;20038;-74
2021/10/22 04:36:13;;;;;;;14.43;2.75;;;6.50;92.70;;;;;;5008116;28;20597;-74
2021/10/22 04:41:24;;;;;;;18.58;2.78;;;6.50;92.70;;;;;;5020215;28;20045;-74
2021/10/22 04:43:51;;;;;;;12.50;2.80;;;6.50;92.70;;;;;;5027526;28;20045;-75
2021/10/22 04:46:18;;;;;;;12.45;2.58;;;6.50;92.70;;;;;;5009272;28;20398;-74
2021/10/22 04:48:45;;;;;;;21.33;3.05;;;6.50;92.70;;;;;;4993843;28;20171;-75
2021/10/22 04:51:10;;;;;;;20.10;2.83;;;6.50;92.70;;;;;;5027877;28;20409;-74
2021/10/22 04:53:36;;;;;;;17.10;2.90;;;6.50;92.70;;;;;;5026763;28;20040;-74
2021/10/22 04:56:02;;;;;;;12.45;3.22;;;6.50;92.70;;;;;;5010114;28;20040;-74
2021/10/22 04:58:27;;;;;;;17.38;2.97;;;6.50;93.00;;;;;;5029679;28;20042;-74
2021/10/22 05:00:53;;;;;;;14.32;3.00;;;6.50;92.70;;;;;;5013320;28;20132;-75
2021/10/22 05:03:19;;;;;;;14.02;2.72;;;6.50;92.70;;;;;;5000165;28;20037;-74
2021/10/22 05:05:45;;;;;;;13.00;2.90;;;6.50;92.70;;;;;;4996425;28;20038;-74
2021/10/22 05:08:10;;;;;;;16.10;2.95;;;6.50;92.70;;;;;;5013349;28;20763;-74
2021/10/22 05:10:36;;;;;;;16.88;3.05;;;6.50;92.70;;;;;;5024453;27;20049;-74
2021/10/22 05:13:02;;;;;;;21.25;3.33;;;6.50;92.70;;;;;;5013256;28;20502;-74
2021/10/22 05:15:28;;;;;;;12.02;3.03;;;6.40;92.70;;;;;;5030583;28;20078;-76
2021/10/22 05:17:53;;;;;;;17.02;2.80;;;6.40;92.70;;;;;;5012839;28;20033;-74
2021/10/22 05:20:19;;;;;;;16.83;3.38;;;6.40;92.80;;;;;;4996056;28;20064;-74
2021/10/22 05:22:45;;;;;;;19.83;4.35;;;6.50;92.80;;;;;;5031052;28;20049;-75
2021/10/22 05:25:12;;;;;;;20.77;3.50;;;6.40;92.80;;;;;;5028475;28;20029;-74
2021/10/22 05:27:38;;;;;;;18.60;3.33;;;6.40;92.80;;;;;;5029638;28;20030;-74
2021/10/22 05:30:06;;;;;;;13.27;2.65;;;6.40;92.80;;;;;;5029107;28;20082;-74
2021/10/22 05:32:31;;;;;;;15.82;3.05;;;6.40;92.80;;;;;;5029284;28;20033;-74
2021/10/22 05:34:57;;;;;;;21.98;2.80;;;6.40;92.90;;;;;;5029258;28;20041;-74
2021/10/22 05:37:23;;;;;;;15.05;3.00;;;6.40;92.90;;;;;;5029421;28;20390;-74
2021/10/22 05:39:49;;;;;;;19.38;3.03;;;6.40;92.90;;;;;;5011930;28;20387;-74
2021/10/22 05:42:15;;;;;;;12.82;3.10;;;6.40;92.90;;;;;;5029454;28;20038;-74
2021/10/22 05:44:41;;;;;;;21.95;3.08;;;6.40;92.90;;;;;;5019034;28;20026;-74
2021/10/22 05:47:06;;;;;;;18.83;3.08;;;6.40;92.90;;;;;;5029827;28;20029;-74
2021/10/22 05:49:32;;;;;;;16.45;3.17;;;6.40;92.90;;;;;;5006384;28;20022;-74
2021/10/22 05:51:58;;;;;;;17.73;2.92;;;6.40;92.90;;;;;;5030248;28;20040;-76
2021/10/22 05:54:23;;;;;;;16.60;3.05;;;6.40;92.90;;;;;;5049133;27;20288;-74
2021/10/22 05:56:49;;;;;;;19.42;3.00;;;6.40;92.90;;;;;;5053003;27;20086;-75
2021/10/22 05:59:16;;;;;;;12.70;2.95;;;6.40;92.80;;;;;;5029590;28;20174;-75
2021/10/22 06:01:42;;;;;;;12.00;2.47;;;6.40;92.80;;;;;;5031012;28;20037;-75
2021/10/22 06:04:08;;;;;;;14.52;2.63;;;6.50;92.90;;;;;;5029474;28;20036;-75
2021/10/22 06:10:10;;;;;;;14.73;2.60;;;6.50;92.80;;;;;;5021508;28;20424;-75
2021/10/22 06:12:52;;;;;;;12.35;2.40;;;6.50;92.80;;;;;;5007214;28;20047;-74
2021/10/22 06:15:17;;;;;;;12.20;2.50;;;6.40;92.80;;;;;;5013100;28;20030;-74
2021/10/22 06:17:43;;;;;;;12.35;2.47;;;6.50;92.80;;;;;;5025491;28;20044;-75
2021/10/22 06:20:13;;;;;;;11.18;2.67;;;6.50;92.80;;;;;;4996945;28;20057;-75
2021/10/22 06:23:53;;;;;;;15.43;2.97;;;6.50;92.80;;;;;;5013562;28;20042;-75
2021/10/22 06:25:42;;;;;;;11.02;2.55;;;6.50;92.70;;;;;;5029774;28;20514;-74
2021/10/22 06:28:10;;;;;;;13.95;3.50;;;6.50;92.70;;;;;;5046236;28;20496;-74
2021/10/22 06:30:36;;;;;;;13.10;2.72;;;6.50;92.70;;;;;;5046336;28;20036;-75
2021/10/22 06:33:02;;;;;;;14.85;2.70;;;6.50;92.60;;;;;;5013194;28;20029;-76
2021/10/22 06:35:28;;;;;;;12.85;2.75;;;6.50;92.60;;;;;;5045952;28;20033;-75
2021/10/22 06:37:55;;;;;;;14.63;3.10;;;6.50;92.60;;;;;;5029352;28;20113;-75
2021/10/22 06:40:21;;;;;;;15.20;3.00;;;6.50;92.50;;;;;;4996911;28;20072;-75
2021/10/22 06:42:47;;;;;;;10.20;2.20;;;6.50;92.50;;;;;;5030523;28;20158;-75
2021/10/22 06:45:13;;;;;;;13.63;2.47;;;6.50;92.50;;;;;;5013293;28;20113;-75
2021/10/22 06:47:39;;;;;;;14.18;2.67;;;6.60;92.60;;;;;;4995825;28;20170;-75
2021/10/22 06:50:06;;;;;;;13.57;2.45;;;6.60;92.60;;;;;;5012437;28;20030;-75
2021/10/22 06:52:31;;;;;;;12.35;3.22;;;6.60;92.60;;;;;;5029141;28;20774;-76
2021/10/22 06:54:57;;;;;;;15.35;2.40;;;6.60;92.60;;;;;;5030419;28;20045;-74
2021/10/22 06:57:24;;;;;;;14.27;2.42;;;6.60;92.60;;;;;;5030178;28;20430;-74
2021/10/22 06:59:50;;;;;;;13.63;3.58;;;6.70;92.60;;;;;;4996091;28;20040;-75
2021/10/22 07:02:15;;;;;;;16.08;2.70;;;6.70;92.60;;;;;;5049220;28;20444;-75
2021/10/22 07:04:48;;;;;;;8.25;2.25;;;6.70;92.60;;;;;;5028684;28;20036;-75
2021/10/22 07:07:14;;;;;;;13.52;2.60;;;6.70;92.60;;;;;;5111531;27;20063;-75
2021/10/22 07:09:41;;;;;;;16.33;2.67;;;6.70;92.70;;;;;;5109053;27;20072;-75
2021/10/22 07:12:09;;;;;;;16.08;2.22;;;6.80;92.70;;;;;;5032518;28;20026;-75
2021/10/22 07:14:36;;;;;;;14.05;2.65;;;6.90;92.80;;;;;;5011429;28;20033;-75
2021/10/22 07:17:04;;;;;;;10.93;2.30;;;6.90;92.70;;;;;;5044599;28;20057;-74
2021/10/22 07:19:31;;;;;;;19.73;3.28;;;7.00;92.70;;;;;;5029756;28;20021;-74
2021/10/22 07:22:04;;;;;;;10.07;2.42;;;7.10;92.60;;;;;;5010301;28;20062;-76
2021/10/22 07:24:30;;;;;;;16.45;2.55;;;7.10;92.50;;;;;;5011467;28;20032;-75
2021/10/22 07:26:55;;;;;;;18.40;2.78;;;7.20;92.50;;;;;;4995174;28;20118;-75
2021/10/22 07:29:21;;;;;;;21.63;2.85;;;7.30;92.30;;;;;;5011791;28;20111;-75
2021/10/22 07:31:47;;;;;;;16.05;2.97;;;7.40;92.10;;;;;;5027419;28;20021;-74
2021/10/22 07:34:15;;;;;;;15.27;2.70;;;7.40;92.00;;;;;;5010326;28;20052;-75
2021/10/22 07:36:41;;;;;;;11.43;2.72;;;7.40;92.00;;;;;;5009654;28;20056;-74
2021/10/22 07:39:07;;;;;;;8.32;2.33;;;7.50;91.80;;;;;;5010106;28;20033;-74
2021/10/22 07:41:32;;;;;;;13.15;2.80;;;7.70;91.80;;;;;;5009865;28;20040;-75
2021/10/22 07:43:58;;;;;;;11.60;2.83;;;7.70;91.30;;;;;;5028369;28;20569;-74
2021/10/22 07:46:24;;;;;;;11.77;2.47;;;7.80;91.50;;;;;;5010449;28;20409;-74
2021/10/22 07:48:49;;;;;;;12.65;2.80;;;7.80;91.50;;;;;;5008516;28;20034;-74
2021/10/22 07:51:15;;;;;;;12.02;2.80;;;8.00;91.80;;;;;;5036289;28;20446;-75
2021/10/22 07:53:42;;;;;;;14.30;2.90;;;8.20;91.60;;;;;;5045273;28;20055;-75
2021/10/22 07:56:08;;;;;;;15.68;2.33;;;8.20;91.60;;;;;;5028129;28;20033;-75
2021/10/22 07:58:34;;;;;;;17.40;2.65;;;8.30;91.60;;;;;;5044483;28;20089;-75
2021/10/22 08:01:01;;;;;;;11.30;2.47;;;8.30;91.50;;;;;;5045423;28;20508;-76
2021/10/22 08:03:26;;;;;;;13.00;2.90;;;8.30;91.50;;;;;;5012023;28;20075;-75
2021/10/22 08:05:52;;;;;;;8.68;2.72;;;8.30;91.70;;;;;;5012145;28;20057;-77
2021/10/22 08:08:19;;;;;;;11.35;2.17;;;8.40;92.00;;;;;;5028758;28;20025;-76
2021/10/22 08:10:44;;;;;;;10.75;2.47;;;8.50;92.40;;;;;;5029791;28;20535;-75
2021/10/22 08:13:12;;;;;;;10.95;2.72;;;8.70;92.20;;;;;;5029462;28;20098;-75
2021/10/22 08:15:40;;;;;;;12.35;2.47;;;9.00;91.70;;;;;;5011620;28;20053;-75
2021/10/22 08:18:08;;;;;;;12.23;2.40;;;9.10;90.90;;;;;;5011673;28;20061;-75
2021/10/22 08:20:35;;;;;;;11.75;2.60;;;9.10;90.60;;;;;;5047491;28;20033;-75
2021/10/22 08:23:02;;;;;;;13.73;2.90;;;9.00;90.70;;;;;;5027754;28;20494;-76
2021/10/22 08:25:28;;;;;;;15.65;2.33;;;9.00;90.70;;;;;;5011449;28;20026;-75
2021/10/22 08:27:53;;;;;;;12.57;2.90;;;9.10;91.00;;;;;;5011058;28;20403;-75
2021/10/22 08:30:22;;;;;;;20.63;3.03;;;9.10;90.80;;;;;;5011517;28;20029;-75
2021/10/22 08:32:55;;;;;;;11.00;2.58;;;9.10;90.80;;;;;;4994709;28;20110;-75
2021/10/22 08:35:23;;;;;;;15.23;3.00;;;9.00;90.90;;;;;;5011792;28;20037;-75
2021/10/22 08:37:49;;;;;;;14.15;2.22;;;9.00;90.90;;;;;;5028912;28;20398;-75
2021/10/22 08:40:16;;;;;;;14.63;3.13;;;9.00;90.90;;;;;;5011374;28;20052;-75
2021/10/22 08:42:43;;;;;;;14.02;2.65;;;9.00;91.10;;;;;;5011174;28;20045;-76
2021/10/22 08:45:10;;;;;;;12.98;3.13;;;9.10;90.80;;;;;;4994674;28;20026;-74
2021/10/22 08:47:37;;;;;;;16.75;3.03;;;9.10;90.70;;;;;;5009711;28;20033;-74
2021/10/22 08:50:10;;;;;;;15.00;2.90;;;9.10;90.60;;;;;;5027311;28;20467;-74
2021/10/22 08:52:37;;;;;;;12.95;2.78;;;9.10;90.80;;;;;;5012680;28;20113;-73
2021/10/22 08:55:06;;;;;;;13.02;2.55;;;9.30;91.00;;;;;;5029037;28;20036;-73
2021/10/22 08:57:32;;;;;;;14.48;2.50;;;9.40;90.80;;;;;;5016107;28;20104;-74
2021/10/22 08:59:59;;;;;;;18.55;2.67;;;9.70;90.70;;;;;;5009312;28;20399;-73
2021/10/22 09:02:28;;;;;;;13.68;2.35;;;9.90;90.10;;;;;;5008947;28;20033;-74
2021/10/22 09:04:57;;;;;;;23.23;3.30;;;10.10;89.40;;;;;;5027275;28;20079;-73
2021/10/22 09:07:43;;;;;;;13.50;2.28;;;10.20;89.10;;;;;;5009077;28;20043;-74
2021/10/22 09:10:19;;;;;;;12.90;2.65;;;10.10;88.40;;;;;;5008822;28;20691;-73
2021/10/22 09:12:50;;;;;;;10.43;2.15;;;10.00;88.90;;;;;;5027034;28;20490;-73
2021/10/22 09:15:42;;;;;;;12.50;2.17;;;10.10;89.30;;;;;;5009082;28;20090;-73
2021/10/22 09:18:19;;;;;;;12.68;2.30;;;10.20;89.50;;;;;;5028125;28;20045;-73
2021/10/22 09:20:50;;;;;;;12.40;2.15;;;10.40;89.10;;;;;;5026407;28;20116;-73
2021/10/22 09:23:24;;;;;;;13.55;2.22;;;10.50;88.30;;;;;;5001277;28;20560;-73
2021/10/22 09:25:50;;;;;;;13.95;2.17;;;10.70;87.80;;;;;;5026069;28;20025;-74
2021/10/22 09:28:26;;;;;;;10.77;2.40;;;10.80;86.70;;;;;;5008430;28;20040;-74
2021/10/22 09:30:52;;;;;;;10.23;2.13;;;11.00;86.70;;;;;;5026330;28;20030;-74
2021/10/22 09:33:22;;;;;;;13.38;2.10;;;11.00;86.00;;;;;;4992302;28;20040;-73
2021/10/22 09:35:52;;;;;;;13.98;2.33;;;11.10;85.80;;;;;;5008155;28;20064;-74
2021/10/22 09:38:27;;;;;;;7.57;1.52;;;11.20;86.40;;;;;;5026272;28;20061;-73
2021/10/22 09:41:04;;;;;;;17.15;2.17;;;11.30;86.90;;;;;;5026600;28;20038;-74
2021/10/22 09:43:38;;;;;;;12.40;1.95;;;11.40;85.50;;;;;;5025908;28;20056;-73
2021/10/22 09:46:14;;;;;;;9.52;1.73;;;11.40;85.50;;;;;;5029770;28;20033;-74
2021/10/22 09:48:43;;;;;;;9.20;2.03;;;11.50;84.60;;;;;;5029220;28;20029;-74
2021/10/22 09:51:34;;;;;;;11.32;1.88;;;11.60;84.60;;;;;;5029422;28;20017;-73
2021/10/22 09:54:12;;;;;;;16.45;1.90;;;11.60;83.40;;;;;;5029800;28;20032;-73
2021/10/22 09:56:41;;;;;;;9.13;1.92;;;11.70;83.50;;;;;;5024510;28;20033;-74
2021/10/22 09:59:18;;;;;;;9.48;2.65;;;11.80;83.50;;;;;;5029548;28;20066;-74
2021/10/22 10:01:44;;;;;;;10.13;1.90;;;11.90;83.50;;;;;;5012882;28;20140;-74
2021/10/22 10:04:12;;;;;;;13.45;1.90;;;12.00;83.30;;;;;;5011599;28;20132;-73
2021/10/22 10:06:39;;;;;;;9.48;2.10;;;12.10;82.60;;;;;;5029927;28;20064;-74
2021/10/22 10:09:09;;;;;;;8.30;1.65;;;12.10;82.90;;;;;;5011693;28;20084;-73
2021/10/22 10:11:40;;;;;;;8.40;1.60;;;12.10;82.60;;;;;;5028597;28;20036;-74
2021/10/22 10:14:07;;;;;;;12.50;2.25;;;12.10;82.50;;;;;;5011241;28;20033;-74
2021/10/22 10:16:34;;;;;;;12.38;1.90;;;12.20;83.00;;;;;;5029042;28;20030;-74
2021/10/22 10:19:13;;;;;;;16.08;2.13;;;12.20;82.60;;;;;;5011362;28;20029;-74
2021/10/22 10:21:43;;;;;;;;;;;12.20;81.80;;;;;;5028871;28;20363;-74
2021/10/22 10:24:10;;;;;;;12.35;1.98;;;12.20;82.20;;;;;;5028212;28;20411;-74
2021/10/22 10:26:36;;;;;;;9.35;1.85;;;12.30;81.60;;;;;;5013269;28;20049;-74
2021/10/22 10:29:28;;;;;;;9.30;1.85;;;12.30;81.20;;;;;;5028647;28;20037;-74
2021/10/22 10:32:24;;;;;;;8.55;1.85;;;12.50;80.90;;;;;;5011214;28;20536;-75
2021/10/22 10:34:54;;;;;;;10.35;1.88;;;12.60;79.70;;;;;;5021606;28;20045;-75
2021/10/22 10:37:23;;;;;;;11.25;2.05;;;12.70;80.20;;;;;;5027069;28;20072;-75
2021/10/22 10:39:49;;;;;;;;;;;12.80;79.80;;;;;;5028655;28;20033;-74
2021/10/22 10:42:28;;;;;;;10.48;2.00;;;12.90;79.60;;;;;;5010170;28;19974;-74
2021/10/22 10:44:55;;;;;;;11.98;2.25;;;12.90;79.50;;;;;;5010236;28;20030;-74
2021/10/22 10:47:27;;;;;;;12.13;2.20;;;12.90;80.20;;;;;;5010987;28;20034;-74
2021/10/22 10:49:52;;;;;;;19.55;2.25;;;12.90;79.50;;;;;;5028235;28;20029;-75
2021/10/22 10:52:40;;;;;;;14.32;2.08;;;12.80;80.40;;;;;;5028698;28;20029;-74
2021/10/22 10:55:32;;;;;;;9.13;2.00;;;12.90;79.90;;;;;;5027821;28;20108;-74
2021/10/22 10:57:59;;;;;;;13.18;1.98;;;13.00;79.40;;;;;;5028373;28;20017;-74
2021/10/22 11:00:31;;;;;;;8.00;1.75;;;13.00;79.30;;;;;;5028577;28;20144;-75
2021/10/22 11:03:02;;;;;;;12.77;1.80;;;13.00;79.00;;;;;;5011279;28;20512;-74
2021/10/22 11:05:50;;;;;;;13.52;1.92;;;13.10;79.20;;;;;;5009751;28;20060;-75
2021/10/22 11:08:24;;;;;;;10.88;1.80;;;13.20;77.80;;;;;;5010540;28;20115;-74
2021/10/22 11:11:23;;;;;;;11.30;1.73;;;13.20;78.40;;;;;;5028469;28;20026;-75
2021/10/22 11:13:53;;;;;;;10.98;2.05;;;13.20;77.50;;;;;;5014666;28;20040;-75
2021/10/22 11:16:22;;;;;;;12.95;2.47;;;13.10;77.60;;;;;;5010866;28;20030;-74
2021/10/22 11:19:08;;;;;;;11.63;1.55;;;13.00;77.80;;;;;;5010817;28;20034;-74
2021/10/22 11:21:37;;;;;;;14.98;2.35;;;12.90;78.40;;;;;;5028497;28;20076;-74
2021/10/22 11:24:05;;;;;;;11.02;1.70;;;13.00;79.30;;;;;;5028737;28;20029;-74
2021/10/22 11:26:32;;;;;;;12.90;1.75;;;13.00;79.70;;;;;;5027960;28;20545;-74
2021/10/22 11:29:14;;;;;;;10.70;1.83;;;13.00;79.20;;;;;;5010620;28;20029;-74
2021/10/22 11:32:00;;;;;;;9.43;1.73;;;13.00;79.30;;;;;;5010301;28;20033;-74
2021/10/22 11:34:31;;;;;;;14.68;2.40;;;13.10;79.30;;;;;;5028389;28;20022;-74
2021/10/22 11:37:13;;;;;;;9.90;1.88;;;13.30;79.20;;;;;;5027639;28;20493;-74
2021/10/22 11:39:44;;;;;;;8.30;1.70;;;13.30;78.50;;;;;;5027900;28;20056;-75
2021/10/22 11:42:17;;;;;;;8.25;1.98;;;13.30;79.20;;;;;;5027945;28;20393;-74
2021/10/22 11:44:50;;;;;;;9.68;2.00;;;13.20;78.70;;;;;;5009743;28;20061;-74
2021/10/22 11:47:17;;;;;;;8.32;1.80;;;13.10;78.60;;;;;;5027115;28;20030;-74
2021/10/22 11:49:43;;;;;;;9.73;1.70;;;13.10;79.30;;;;;;5027293;28;20040;-74
2021/10/22 11:52:15;;;;;;;8.98;1.73;;;13.00;79.10;;;;;;5010611;28;20033;-74
2021/10/22 11:54:49;;;;;;;10.68;1.58;;;12.90;79.40;;;;;;5009892;28;20025;-74
2021/10/22 11:57:20;;;;;;;7.32;1.63;;;12.90;79.40;;;;;;5027089;28;20033;-74
2021/10/22 11:59:48;;;;;;;14.00;2.28;;;12.80;79.70;;;;;;5011742;28;20485;-73
2021/10/22 12:02:15;;;;;;;9.30;1.70;;;12.70;79.30;;;;;;5009873;28;20120;-73
2021/10/22 12:04:42;;;;;;;18.98;2.75;;;12.70;79.90;;;;;;5027425;28;20061;-74
2021/10/22 12:07:09;;;;;;;10.77;1.80;;;12.60;80.40;;;;;;5030603;28;20474;-74
2021/10/22 12:09:40;;;;;;;16.83;2.05;;;12.60;80.50;;;;;;5010132;28;20118;-74
2021/10/22 12:12:09;;;;;;;16.40;2.47;;;12.60;80.60;;;;;;5028685;28;20033;-73
2021/10/22 12:14:38;;;;;;;9.30;2.05;;;12.70;80.10;;;;;;5027725;28;20039;-74
2021/10/22 12:17:07;;;;;;;8.80;1.80;;;12.70;79.40;;;;;;5028112;28;20022;-74
2021/10/22 12:19:32;;;;;;;12.65;1.98;;;12.80;79.80;;;;;;4990317;28;20038;-74
2021/10/22 12:21:59;;;;;;;14.80;1.80;;;12.80;79.90;;;;;;5031137;28;20041;-74
2021/10/22 12:24:36;;;;;;;9.27;2.03;;;13.00;80.30;;;;;;5027826;28;20034;-74
2021/10/22 12:27:06;;;;;;;14.40;2.20;;;13.00;79.80;;;;;;4995649;28;20429;-74
2021/10/22 12:29:59;;;;;;;10.23;1.80;;;13.10;80.10;;;;;;5022806;28;20112;-73
2021/10/22 12:32:39;;;;;;;12.23;1.98;;;13.20;80.30;;;;;;5030850;28;20067;-73
2021/10/22 12:35:11;;;;;;;20.50;2.03;;;13.20;80.70;;;;;;5027090;28;20025;-73
2021/10/22 12:37:46;;;;;;;12.07;2.05;;;13.10;80.20;;;;;;5026696;28;20385;-74
2021/10/22 12:40:18;;;;;;;13.25;2.50;;;13.10;80.60;;;;;;5026245;28;20053;-74
2021/10/22 12:42:45;;;;;;;13.43;2.10;;;13.10;81.60;;;;;;5026855;28;20048;-74
2021/10/22 12:45:15;;;;;;;7.43;2.00;;;13.00;82.30;;;;;;4993169;28;20506;-74
2021/10/22 12:47:42;;;;;;;9.40;2.00;;;13.00;83.60;;;;;;5008655;28;20037;-73
2021/10/22 12:50:09;;;;;;;17.90;2.33;;;12.90;84.70;;;;;;5026568;28;20037;-74
2021/10/22 12:52:36;;;;;;;13.93;2.28;;;12.90;84.90;;;;;;5026918;28;20663;-74
2021/10/22 12:55:02;;;;;;;12.30;1.90;;;12.90;84.80;;;;;;5026404;28;20037;-73
2021/10/22 12:57:27;;;;;;;10.55;2.08;;;12.90;84.30;;;;;;5026185;28;20049;-73